Time;durP1;ratioP1;P1;durP2;ratioP2;P2;SDS_P1;SDS_P2;PMS_P1;PMS_P2;Temp;Humidity;BMP_temperature;BMP_pressure;BME280_temperature;BME280_humidity;BME280_pressure;Samples;Min_cycle;Max_cycle;Signal;HPM_P1;HPM_P2
2021/11/27 00:02:01;;;;;;;6.67;4.07;;;;;;;5.74;79.58;97976.36;1746189;80;21130;-53
2021/11/27 00:04:27;;;;;;;5.23;4.50;;;;;;;5.74;79.82;97971.02;1737289;81;21177;-54
2021/11/27 00:06:53;;;;;;;5.17;4.47;;;;;;;5.75;80.09;97955.87;1745421;81;21183;-55
2021/11/27 00:09:20;;;;;;;6.73;4.70;;;;;;;5.72;80.33;97951.55;1746758;80;21096;-56
2021/11/27 00:11:47;;;;;;;8.77;5.57;;;;;;;5.70;80.57;97948.10;1742753;79;21147;-54
2021/11/27 00:14:14;;;;;;;7.60;5.23;;;;;;;5.69;80.82;97955.28;1745350;79;21060;-54
2021/11/27 00:16:41;;;;;;;5.67;5.17;;;;;;;5.70;80.97;97946.77;1747695;80;21185;-53
2021/11/27 00:19:11;;;;;;;10.03;6.20;;;;;;;5.67;81.19;97926.95;1756786;79;21090;-54
2021/11/27 00:21:39;;;;;;;10.30;5.23;;;;;;;5.67;81.45;97929.14;1755556;79;21012;-54
2021/11/27 00:26:48;;;;;;;7.57;6.37;;;;;;;5.73;81.85;97920.38;1759153;79;24781;-55
2021/11/27 00:29:15;;;;;;;9.33;5.83;;;;;;;5.68;82.00;97921.52;1732484;81;20961;-55
2021/11/27 00:31:42;;;;;;;7.50;6.23;;;;;;;5.68;82.15;97917.52;1732122;80;21219;-55
2021/11/27 00:34:09;;;;;;;7.03;6.33;;;;;;;5.69;82.26;97913.05;1726750;81;20918;-54
2021/11/27 00:36:36;;;;;;;6.37;5.67;;;;;;;5.73;82.40;97904.36;1730585;81;20918;-54
2021/11/27 00:39:04;;;;;;;7.93;5.93;;;;;;;5.74;82.50;97898.94;1730338;81;20970;-54
2021/11/27 00:41:31;;;;;;;7.27;5.47;;;;;;;5.75;82.65;97887.79;1728247;81;21500;-54
2021/11/27 00:43:57;;;;;;;6.20;5.60;;;;;;;5.77;82.77;97878.75;1730427;80;22157;-54
2021/11/27 00:46:24;;;;;;;6.00;5.10;;;;;;;5.80;82.83;97874.55;1730029;80;21531;-53
2021/11/27 00:48:51;;;;;;;6.77;5.23;;;;;;;5.83;82.93;97861.50;1726835;81;20887;-54
2021/11/27 00:51:20;;;;;;;6.87;6.17;;;;;;;5.85;83.02;97861.80;1727334;81;20926;-54
2021/11/27 00:53:47;;;;;;;7.97;5.90;;;;;;;5.89;83.11;97850.48;1730681;81;20922;-53
2021/11/27 00:56:14;;;;;;;6.20;5.60;;;;;;;5.89;83.12;97847.34;1734088;80;22192;-54
2021/11/27 00:58:43;;;;;;;11.77;6.10;;;;;;;5.89;83.14;97842.00;1726836;81;20922;-54
2021/11/27 01:01:13;;;;;;;5.70;5.10;;;;;;;5.88;83.17;97824.26;1730551;80;20950;-54
2021/11/27 01:03:41;;;;;;;9.10;6.30;;;;;;;5.89;83.23;97825.98;1729487;81;20957;-54
2021/11/27 01:06:09;;;;;;;6.83;5.27;;;;;;;5.88;83.28;97818.05;1729666;81;21725;-54
2021/11/27 01:08:36;;;;;;;5.47;4.47;;;;;;;5.87;83.36;97805.14;1730184;81;21383;-54
2021/11/27 01:11:11;;;;;;;5.93;4.73;;;;;;;5.87;83.45;97798.47;1728951;81;21308;-54
2021/11/27 01:13:38;;;;;;;;;;;;;;;5.88;83.54;97794.02;1730813;81;21046;-54
2021/11/27 01:16:05;;;;;;;4.40;4.00;;;;;;;5.89;83.65;97795.75;1729852;81;20133;-55
2021/11/27 01:18:31;;;;;;;5.37;4.47;;;;;;;5.88;83.69;97779.34;1728269;81;20946;-54
2021/11/27 01:21:02;;;;;;;5.40;4.93;;;;;;;5.87;83.77;97778.44;1728972;81;21113;-53
2021/11/27 01:23:28;;;;;;;4.70;3.77;;;;;;;5.88;83.87;97775.33;1728479;81;21052;-54
2021/11/27 01:25:55;;;;;;;4.80;3.73;;;;;;;5.90;83.98;97776.11;1721071;81;21097;-54
2021/11/27 01:28:22;;;;;;;5.10;4.60;;;;;;;5.91;84.05;97764.00;1713083;82;21435;-54
2021/11/27 01:30:52;;;;;;;4.30;3.90;;;;;;;5.93;84.08;97763.44;1709751;82;21069;-54
2021/11/27 01:33:19;;;;;;;3.57;3.20;;;;;;;5.95;84.13;97754.00;1711025;81;22279;-54
2021/11/27 01:35:46;;;;;;;3.80;3.17;;;;;;;5.97;84.18;97762.76;1707627;82;21333;-53
2021/11/27 01:38:12;;;;;;;4.53;3.40;;;;;;;5.97;84.25;97766.77;1709755;81;21512;-55
2021/11/27 01:40:41;;;;;;;4.13;3.77;;;;;;;5.98;84.32;97745.31;1710811;82;22355;-53
2021/11/27 01:43:08;;;;;;;5.13;3.83;;;;;;;5.98;84.35;97750.66;1709393;82;21435;-54
2021/11/27 01:45:36;;;;;;;4.20;3.40;;;;;;;5.98;84.42;97737.77;1712163;82;21683;-53
2021/11/27 01:48:09;;;;;;;2.90;2.60;;;;;;;5.98;84.48;97735.97;1713049;82;20935;-54
2021/11/27 01:50:41;;;;;;;4.37;3.53;;;;;;;5.98;84.55;97727.95;1711922;82;20935;-53
2021/11/27 01:53:08;;;;;;;3.73;3.20;;;;;;;5.95;84.64;97717.95;1711911;82;22061;-53
2021/11/27 01:55:35;;;;;;;4.10;3.20;;;;;;;5.97;84.78;97711.55;1709087;82;20963;-53
2021/11/27 01:58:02;;;;;;;4.83;3.30;;;;;;;5.98;84.86;97704.39;1717120;82;21447;-56
2021/11/27 02:00:32;;;;;;;2.77;2.47;;;;;;;6.00;84.94;97707.84;1712485;82;21425;-54
2021/11/27 02:02:59;;;;;;;4.83;3.47;;;;;;;6.01;84.93;97698.40;1712800;82;21773;-54
2021/11/27 02:05:28;;;;;;;2.77;2.53;;;;;;;6.00;85.01;97698.48;1709803;82;20868;-54
2021/11/27 02:07:54;;;;;;;4.47;2.10;;;;;;;6.00;85.11;97700.69;1710731;82;21109;-55
2021/11/27 02:10:22;;;;;;;3.23;2.23;;;;;;;6.03;85.18;97696.97;1690090;82;21164;-54
2021/11/27 02:12:49;;;;;;;3.10;2.20;;;;;;;6.04;85.22;97682.16;1707443;82;21109;-53
2021/11/27 02:15:17;;;;;;;2.43;2.23;;;;;;;6.04;85.32;97686.16;1707997;82;21097;-54
2021/11/27 02:17:44;;;;;;;2.13;1.50;;;;;;;6.06;85.38;97684.74;1710090;82;21172;-54
2021/11/27 02:20:11;;;;;;;2.70;1.80;;;;;;;6.08;85.46;97682.36;1708816;82;21085;-54
2021/11/27 02:22:38;;;;;;;2.93;1.70;;;;;;;6.10;85.51;97670.25;1708836;82;21109;-55
2021/11/27 02:25:14;;;;;;;2.23;1.10;;;;;;;6.11;85.62;97669.78;1709845;82;21317;-53
2021/11/27 02:27:44;;;;;;;2.27;1.77;;;;;;;6.12;85.71;97658.14;1710043;82;21093;-53
2021/11/27 02:30:12;;;;;;;1.40;1.20;;;;;;;6.12;85.75;97652.33;1709406;82;21030;-54
2021/11/27 02:32:39;;;;;;;2.27;1.10;;;;;;;6.13;85.87;97649.14;1714288;82;20991;-53
2021/11/27 02:35:06;;;;;;;2.63;1.00;;;;;;;6.14;85.94;97643.71;1715045;82;21117;-54
2021/11/27 02:37:32;;;;;;;3.10;1.30;;;;;;;6.15;86.05;97642.77;1714064;82;21137;-55
2021/11/27 02:39:59;;;;;;;1.07;0.90;;;;;;;6.16;86.16;97645.81;1710089;82;21141;-54
2021/11/27 02:42:26;;;;;;;2.03;0.80;;;;;;;6.17;86.24;97638.66;1705018;82;21069;-54
2021/11/27 02:44:52;;;;;;;1.57;0.90;;;;;;;6.18;86.33;97626.55;1712003;82;22621;-53
2021/11/27 02:47:19;;;;;;;0.90;0.70;;;;;;;6.19;86.40;97622.06;1713597;82;21425;-54
2021/11/27 02:49:46;;;;;;;3.57;0.90;;;;;;;6.23;86.51;97622.23;1715412;82;21257;-54
2021/11/27 02:52:12;;;;;;;0.80;0.80;;;;;;;6.24;86.61;97624.81;1711624;81;21704;-54
2021/11/27 02:54:39;;;;;;;0.70;0.70;;;;;;;6.28;86.70;97622.81;1705868;82;21129;-54
2021/11/27 02:57:06;;;;;;;1.00;0.60;;;;;;;6.30;86.74;97610.19;1706414;81;21820;-54
2021/11/27 02:59:34;;;;;;;1.20;0.60;;;;;;;6.33;86.84;97600.64;1705140;82;21112;-54
2021/11/27 03:02:03;;;;;;;1.00;0.57;;;;;;;6.36;86.90;97598.64;1713554;81;20927;-56
2021/11/27 03:04:34;;;;;;;0.70;0.60;;;;;;;6.39;86.99;97604.25;1712667;82;20891;-55
2021/11/27 03:07:01;;;;;;;0.97;0.60;;;;;;;6.42;87.05;97605.39;1710638;82;21034;-55
2021/11/27 03:09:27;;;;;;;0.90;0.50;;;;;;;6.43;87.15;97603.10;1708378;82;21101;-54
2021/11/27 03:11:55;;;;;;;1.13;0.40;;;;;;;6.46;87.24;97606.92;1708910;82;21420;-54
2021/11/27 03:14:24;;;;;;;0.70;0.50;;;;;;;6.47;87.30;97593.91;1710534;82;21402;-56
2021/11/27 03:16:51;;;;;;;0.60;0.37;;;;;;;6.51;87.40;97590.09;1717958;82;20967;-56
2021/11/27 03:19:18;;;;;;;0.70;0.40;;;;;;;6.54;87.46;97593.91;1714730;82;20982;-54
2021/11/27 03:21:45;;;;;;;2.20;0.30;;;;;;;6.57;87.53;97587.48;1716769;81;20979;-54
2021/11/27 03:24:12;;;;;;;0.30;0.30;;;;;;;6.59;87.59;97578.41;1713875;82;21338;-55
2021/11/27 03:26:39;;;;;;;0.30;0.30;;;;;;;6.61;87.65;97580.52;1715019;82;20956;-55
2021/11/27 03:29:06;;;;;;;0.60;0.30;;;;;;;6.64;87.70;97584.77;1720643;82;21416;-54
2021/11/27 03:31:32;;;;;;;0.50;0.40;;;;;;;6.66;87.73;97584.20;1695271;82;20983;-55
2021/11/27 03:34:00;;;;;;;0.30;0.30;;;;;;;6.67;87.79;97578.75;1722854;82;21916;-55
2021/11/27 03:36:27;;;;;;;0.30;0.20;;;;;;;6.71;87.86;97580.28;1724463;82;21921;-55
2021/11/27 03:38:54;;;;;;;0.30;0.30;;;;;;;6.74;87.90;97581.39;1722207;82;20897;-55
2021/11/27 03:41:20;;;;;;;0.60;0.20;;;;;;;6.77;87.91;97583.02;1718244;82;20951;-55
2021/11/27 03:43:49;;;;;;;0.20;0.20;;;;;;;6.78;87.94;97582.91;1694147;82;22147;-55
2021/11/27 03:46:15;;;;;;;0.20;0.20;;;;;;;6.80;87.99;97579.63;1663846;85;20975;-55
2021/11/27 03:48:45;;;;;;;0.30;0.20;;;;;;;6.82;88.01;97585.74;1678007;84;21215;-55
2021/11/27 03:51:17;;;;;;;0.40;0.30;;;;;;;6.84;88.10;97579.81;1661190;85;20922;-55
2021/11/27 03:53:44;;;;;;;0.27;0.20;;;;;;;6.88;88.14;97571.59;1655999;85;20934;-55
2021/11/27 03:56:16;;;;;;;0.47;0.30;;;;;;;6.90;88.19;97565.16;1647219;84;20997;-55
2021/11/27 03:58:48;;;;;;;;;;;;;;;6.93;88.25;97564.97;1681980;83;20934;-54
2021/11/27 04:01:16;;;;;;;0.30;0.20;;;;;;;6.95;88.30;97566.20;1662374;85;21119;-55
2021/11/27 04:03:44;;;;;;;0.20;0.20;;;;;;;6.97;88.29;97568.30;1687745;82;20998;-54
2021/11/27 04:06:11;;;;;;;0.30;0.20;;;;;;;6.99;88.33;97566.35;1674533;84;21155;-55
2021/11/27 04:08:38;;;;;;;0.20;0.20;;;;;;;7.01;88.40;97561.28;1661957;83;20927;-54
2021/11/27 04:11:05;;;;;;;0.20;0.20;;;;;;;7.05;88.42;97566.81;1637038;85;21073;-55
2021/11/27 04:13:32;;;;;;;0.20;0.20;;;;;;;7.08;88.45;97560.38;1660069;85;21736;-54
2021/11/27 04:15:59;;;;;;;0.30;0.20;;;;;;;7.12;88.42;97548.52;1651598;85;21069;-54
2021/11/27 04:18:26;;;;;;;0.27;0.20;;;;;;;7.15;88.49;97544.27;1657933;85;21113;-54
2021/11/27 04:20:55;;;;;;;0.30;0.30;;;;;;;7.19;88.50;97543.97;1656239;84;21096;-55
2021/11/27 04:23:21;;;;;;;0.40;0.30;;;;;;;7.25;88.56;97544.49;1675668;83;21135;-54
2021/11/27 04:25:50;;;;;;;0.37;0.30;;;;;;;7.29;88.56;97558.91;1682619;83;22269;-54
2021/11/27 04:28:18;;;;;;;0.53;0.40;;;;;;;7.30;88.51;97554.41;1666204;84;21434;-54
2021/11/27 04:30:45;;;;;;;0.50;0.40;;;;;;;7.31;88.49;97565.02;1660212;85;20999;-54
2021/11/27 04:33:12;;;;;;;0.63;0.33;;;;;;;7.33;88.49;97553.70;1677057;84;22202;-56
2021/11/27 04:35:49;;;;;;;0.60;0.40;;;;;;;7.34;88.55;97561.25;1675724;83;22474;-55
2021/11/27 04:38:21;;;;;;;0.47;0.47;;;;;;;7.36;88.60;97564.68;1662059;85;22469;-54
2021/11/27 04:40:48;;;;;;;0.50;0.40;;;;;;;7.38;88.70;97562.28;1661912;85;21047;-54
2021/11/27 04:43:17;;;;;;;2.05;0.42;;;;;;;7.41;88.72;97560.70;1682560;84;21509;-54
2021/11/27 04:45:44;;;;;;;1.87;0.40;;;;;;;7.45;88.83;97567.58;1662445;85;20954;-55
2021/11/27 04:48:10;;;;;;;0.50;0.50;;;;;;;7.49;88.89;97574.89;1654102;84;22431;-55
2021/11/27 04:50:39;;;;;;;0.40;0.40;;;;;;;7.52;88.94;97586.25;1660371;83;21058;-54
2021/11/27 04:53:08;;;;;;;1.23;0.50;;;;;;;7.56;88.95;97591.78;1657511;85;21090;-54
2021/11/27 04:55:36;;;;;;;0.75;0.57;;;;;;;7.59;89.02;97579.98;1655726;85;21070;-54
2021/11/27 04:58:04;;;;;;;1.42;0.60;;;;;;;7.62;89.06;97573.56;1658649;83;21563;-55
2021/11/27 05:00:36;;;;;;;0.80;0.60;;;;;;;7.66;89.10;97561.17;1655784;85;21094;-54
2021/11/27 05:03:03;;;;;;;1.17;0.50;;;;;;;7.71;89.17;97568.89;1680202;82;21448;-55
2021/11/27 05:05:30;;;;;;;0.80;0.60;;;;;;;7.75;89.23;97571.23;1643221;85;21485;-54
2021/11/27 05:07:58;;;;;;;1.75;0.70;;;;;;;7.78;89.24;97558.97;1676803;84;21701;-54
2021/11/27 05:10:25;;;;;;;0.80;0.60;;;;;;;7.82;89.27;97563.64;1679175;82;21907;-55
2021/11/27 05:12:52;;;;;;;2.30;1.02;;;;;;;7.86;89.29;97563.77;1675138;84;21547;-54
2021/11/27 05:15:19;;;;;;;1.52;1.10;;;;;;;7.88;89.28;97550.65;1647911;83;22396;-54
2021/11/27 05:17:48;;;;;;;0.82;0.80;;;;;;;7.91;89.25;97553.09;1677917;83;21008;-54
2021/11/27 05:20:33;;;;;;;2.12;1.92;;;;;;;7.94;89.22;97566.75;1675438;84;21095;-54
2021/11/27 05:23:01;;;;;;;1.77;1.67;;;;;;;7.95;89.18;97569.33;1655757;85;21125;-54
2021/11/27 05:25:28;;;;;;;1.72;1.30;;;;;;;7.94;89.13;97564.93;1658600;84;21120;-54
2021/11/27 05:28:13;;;;;;;1.25;0.98;;;;;;;7.96;89.16;97572.38;1666960;83;21121;-53
2021/11/27 05:30:47;;;;;;;3.42;0.90;;;;;;;7.95;89.17;97570.67;1665486;84;21436;-54
2021/11/27 05:33:16;;;;;;;1.10;1.00;;;;;;;7.96;89.08;97579.56;1639223;86;21154;-54
2021/11/27 05:35:44;;;;;;;1.82;1.30;;;;;;;7.96;89.05;97586.26;1667493;84;21136;-54
2021/11/27 05:38:10;;;;;;;4.40;1.30;;;;;;;7.96;89.01;97582.23;1668254;84;21424;-54
2021/11/27 05:40:37;;;;;;;4.17;1.00;;;;;;;7.95;88.97;97588.56;1658212;84;21175;-54
2021/11/27 05:43:05;;;;;;;3.22;1.60;;;;;;;7.96;88.99;97580.90;1657250;85;21021;-54
2021/11/27 05:45:31;;;;;;;1.70;1.40;;;;;;;7.96;88.96;97584.44;1669773;84;21111;-54
2021/11/27 05:48:01;;;;;;;2.72;2.58;;;;;;;7.96;88.98;97579.56;1666976;84;21199;-54
2021/11/27 05:50:29;;;;;;;2.80;2.60;;;;;;;7.97;88.88;97585.30;1667889;84;20967;-54
2021/11/27 05:52:56;;;;;;;3.98;3.62;;;;;;;7.97;88.92;97585.30;1655676;84;21027;-54
2021/11/27 05:55:23;;;;;;;6.05;5.65;;;;;;;7.97;88.89;97587.49;1668217;84;21101;-54
2021/11/27 05:57:50;;;;;;;8.75;7.97;;;;;;;7.98;88.91;97588.34;1650579;84;21084;-54
2021/11/27 06:00:17;;;;;;;10.70;9.58;;;;;;;7.99;88.94;97590.06;1648488;86;21116;-54
2021/11/27 06:02:44;;;;;;;16.55;14.55;;;;;;;7.99;88.93;97598.11;1672549;84;21093;-54
2021/11/27 06:05:10;;;;;;;26.27;21.60;;;;;;;8.01;88.87;97597.97;1643235;86;21164;-54
2021/11/27 06:07:37;;;;;;;16.02;13.83;;;;;;;8.02;88.88;97599.69;1640495;84;21070;-54
2021/11/27 06:10:04;;;;;;;19.23;17.15;;;;;;;8.02;88.88;97598.34;1648124;84;21098;-53
2021/11/27 06:12:31;;;;;;;8.38;7.55;;;;;;;8.03;88.92;97599.58;1672444;84;21013;-54
2021/11/27 06:14:58;;;;;;;13.45;12.05;;;;;;;8.06;88.94;97610.56;1656843;85;21086;-54
2021/11/27 06:17:24;;;;;;;11.53;10.32;;;;;;;8.06;88.90;97600.71;1669773;84;21086;-53
2021/11/27 06:19:52;;;;;;;12.07;10.40;;;;;;;8.08;88.94;97601.44;1670431;84;20922;-54
2021/11/27 06:22:21;;;;;;;5.55;5.12;;;;;;;8.10;88.97;97608.88;1652311;86;20986;-56
2021/11/27 06:24:47;;;;;;;3.60;3.30;;;;;;;8.11;88.97;97612.42;1646871;84;21006;-54
2021/11/27 06:27:14;;;;;;;2.55;2.35;;;;;;;8.13;88.95;97606.48;1645788;84;21314;-54
2021/11/27 06:29:42;;;;;;;2.45;2.25;;;;;;;8.15;88.99;97602.73;1651404;84;22138;-54
2021/11/27 06:32:09;;;;;;;3.87;3.58;;;;;;;8.18;88.97;97601.63;1643053;86;20940;-54
2021/11/27 06:34:36;;;;;;;2.67;2.47;;;;;;;8.20;88.95;97609.94;1672569;84;21937;-54
2021/11/27 06:37:03;;;;;;;4.55;2.83;;;;;;;8.22;88.95;97601.31;1671784;84;21037;-54
2021/11/27 06:39:29;;;;;;;3.08;2.87;;;;;;;8.25;88.94;97611.78;1661687;84;20978;-54
2021/11/27 06:41:57;;;;;;;3.27;2.98;;;;;;;8.26;88.92;97610.82;1648139;85;21464;-54
2021/11/27 06:44:35;;;;;;;4.33;3.90;;;;;;;8.29;88.86;97612.44;1652681;85;20983;-54
2021/11/27 06:47:02;;;;;;;6.00;4.53;;;;;;;8.31;88.87;97616.76;1645573;84;20935;-55
2021/11/27 06:49:28;;;;;;;5.78;5.20;;;;;;;8.32;88.86;97621.64;1655195;84;20967;-54
2021/11/27 06:51:55;;;;;;;4.78;4.03;;;;;;;8.34;88.81;97617.00;1631250;86;21631;-54
2021/11/27 06:54:22;;;;;;;6.35;5.67;;;;;;;8.35;88.75;97620.05;1672422;84;21552;-54
2021/11/27 06:56:49;;;;;;;12.63;11.08;;;;;;;8.38;88.78;97619.84;1667208;84;22341;-54
2021/11/27 06:59:15;;;;;;;18.48;14.55;;;;;;;8.40;88.72;97627.77;1669191;84;21788;-54
2021/11/27 07:02:01;;;;;;;9.20;7.22;;;;;;;8.41;88.66;97632.17;1652505;86;21151;-54
2021/11/27 07:04:46;;;;;;;11.97;10.82;;;;;;;8.42;88.58;97632.03;1649414;85;21742;-54
2021/11/27 07:07:31;;;;;;;10.30;8.83;;;;;;;8.43;88.58;97633.75;1661571;85;21223;-54
2021/11/27 07:10:12;;;;;;;12.60;8.50;;;;;;;8.45;88.55;97630.97;1595132;85;21106;-54
2021/11/27 07:12:42;;;;;;;12.85;11.18;;;;;;;8.46;88.54;97627.32;1662774;85;21445;-54
2021/11/27 07:15:10;;;;;;;9.45;7.55;;;;;;;8.50;88.48;97632.84;1663375;85;20986;-54
2021/11/27 07:17:37;;;;;;;8.65;7.70;;;;;;;8.52;88.44;97627.72;1661807;85;20955;-54
2021/11/27 07:20:05;;;;;;;8.30;7.40;;;;;;;8.55;88.39;97634.69;1664682;85;21888;-54
2021/11/27 07:22:31;;;;;;;9.40;8.38;;;;;;;8.59;88.32;97637.53;1663011;85;21349;-54
2021/11/27 07:24:58;;;;;;;9.50;8.53;;;;;;;8.61;88.24;97640.45;1643839;86;20980;-55
2021/11/27 07:27:26;;;;;;;10.03;9.08;;;;;;;8.65;88.22;97635.73;1672943;84;21013;-54
2021/11/27 07:29:53;;;;;;;9.83;8.80;;;;;;;8.68;88.10;97643.05;1667568;84;20966;-54
2021/11/27 07:32:19;;;;;;;10.78;9.13;;;;;;;8.71;88.03;97635.27;1668330;83;21120;-54
2021/11/27 07:34:47;;;;;;;11.65;10.32;;;;;;;8.75;87.98;97635.42;1658689;83;22379;-54
2021/11/27 07:37:14;;;;;;;10.40;8.93;;;;;;;8.78;87.89;97637.86;1659045;85;21078;-54
2021/11/27 07:39:40;;;;;;;13.95;11.38;;;;;;;8.80;87.77;97633.25;1684087;84;21024;-54
2021/11/27 07:42:07;;;;;;;11.90;10.65;;;;;;;8.82;87.67;97636.67;1682074;84;21275;-54
2021/11/27 07:44:44;;;;;;;15.32;9.98;;;;;;;8.83;87.57;97638.39;1610577;86;21175;-54
2021/11/27 07:47:15;;;;;;;13.30;11.97;;;;;;;8.85;87.50;97644.95;1653927;83;21150;-54
2021/11/27 07:49:49;;;;;;;12.43;10.78;;;;;;;8.87;87.44;97643.89;1656975;83;21114;-54
2021/11/27 07:52:29;;;;;;;13.48;11.70;;;;;;;8.91;87.33;97648.55;1678505;84;21183;-54
2021/11/27 07:57:19;;;;;;;14.27;12.37;;;;;;;9.02;87.11;97657.97;1863642;75;21956;-54
2021/11/27 07:59:46;;;;;;;17.30;15.48;;;;;;;9.00;87.02;97646.04;1834073;77;21622;-55
2021/11/27 08:02:12;;;;;;;26.65;19.70;;;;;;;9.03;86.88;97655.18;1834299;76;21609;-55
2021/11/27 08:04:40;;;;;;;16.77;13.30;;;;;;;9.05;86.72;97655.07;1837569;77;21420;-54
2021/11/27 08:07:07;;;;;;;18.52;15.53;;;;;;;9.08;86.65;97657.53;1829337;77;20950;-54
2021/11/27 08:09:33;;;;;;;18.73;14.05;;;;;;;9.11;86.59;97658.63;1830947;77;21073;-55
2021/11/27 08:12:01;;;;;;;15.72;11.90;;;;;;;9.14;86.46;97656.20;1833995;77;21027;-54
2021/11/27 08:14:31;;;;;;;20.05;14.53;;;;;;;9.16;86.36;97652.92;1831705;77;21051;-54
2021/11/27 08:16:56;;;;;;;12.93;11.53;;;;;;;9.17;86.24;97660.87;1834270;77;22092;-55
2021/11/27 08:19:23;;;;;;;19.50;14.78;;;;;;;9.20;86.16;97657.08;1836212;77;20937;-54
2021/11/27 08:21:50;;;;;;;13.75;11.12;;;;;;;9.24;86.02;97657.23;1832803;77;22713;-54
2021/11/27 08:24:16;;;;;;;16.80;13.72;;;;;;;9.28;85.94;97662.72;1836730;77;21009;-54
2021/11/27 08:26:43;;;;;;;16.42;12.82;;;;;;;9.34;85.92;97658.25;1830262;77;21112;-55
2021/11/27 08:29:09;;;;;;;11.90;10.68;;;;;;;9.39;85.79;97664.97;1841023;77;21022;-54
2021/11/27 08:31:38;;;;;;;11.10;9.83;;;;;;;9.45;85.55;97660.94;1828672;77;21041;-54
2021/11/27 08:34:06;;;;;;;19.95;13.40;;;;;;;9.49;85.40;97662.44;1838383;77;21173;-54
2021/11/27 08:36:33;;;;;;;16.27;12.43;;;;;;;9.53;85.14;97658.52;1839539;77;21487;-54
2021/11/27 08:38:59;;;;;;;13.95;11.85;;;;;;;9.57;84.81;97660.02;1837015;77;22002;-55
2021/11/27 08:41:26;;;;;;;13.58;11.50;;;;;;;9.62;84.61;97659.64;1837073;77;20894;-55
2021/11/27 08:43:53;;;;;;;13.85;11.00;;;;;;;9.65;84.28;97660.27;1837505;77;21079;-55
2021/11/27 08:46:19;;;;;;;15.60;11.68;;;;;;;9.67;84.01;97658.34;1831496;77;21353;-55
2021/11/27 08:48:46;;;;;;;12.03;10.00;;;;;;;9.71;83.85;97656.25;1843542;77;21380;-54
2021/11/27 08:51:13;;;;;;;13.15;10.60;;;;;;;9.76;83.57;97659.45;1835520;77;21439;-55
2021/11/27 08:53:40;;;;;;;13.65;10.20;;;;;;;9.81;83.20;97654.08;1835615;77;21073;-54
2021/11/27 08:56:07;;;;;;;13.85;10.15;;;;;;;9.84;82.88;97647.13;1831555;77;21478;-55
2021/11/27 08:58:35;;;;;;;12.93;10.50;;;;;;;9.88;82.59;97651.27;1823870;77;21665;-54
2021/11/27 09:01:04;;;;;;;11.57;9.38;;;;;;;9.92;82.21;97651.89;1820551;77;20918;-54
2021/11/27 09:03:31;;;;;;;9.18;8.00;;;;;;;9.96;81.87;97653.84;1825291;77;21034;-54
2021/11/27 09:06:00;;;;;;;12.65;9.55;;;;;;;9.98;81.45;97665.33;1823650;77;20898;-54
2021/11/27 09:08:28;;;;;;;10.60;9.15;;;;;;;9.98;81.28;97668.87;1819101;77;21289;-54
2021/11/27 09:10:55;;;;;;;12.80;9.83;;;;;;;10.01;80.93;97665.95;1819927;77;20906;-54
2021/11/27 09:13:21;;;;;;;10.50;9.15;;;;;;;10.00;80.61;97665.58;1820566;77;21503;-54
2021/11/27 09:15:48;;;;;;;10.88;8.83;;;;;;;9.98;80.33;97667.53;1792618;78;21349;-54
2021/11/27 09:18:14;;;;;;;10.15;9.15;;;;;;;9.98;80.13;97669.36;1794229;78;21514;-54
2021/11/27 09:20:42;;;;;;;12.15;9.55;;;;;;;9.99;79.95;97672.42;1783690;78;20989;-54
2021/11/27 09:23:09;;;;;;;9.28;8.40;;;;;;;10.00;79.77;97674.13;1790542;78;21376;-54
2021/11/27 09:25:35;;;;;;;9.25;8.35;;;;;;;10.00;79.52;97667.41;1762017;80;21593;-54
2021/11/27 09:28:02;;;;;;;11.50;8.73;;;;;;;10.00;79.31;97686.23;1759313;80;21095;-54
2021/11/27 09:30:29;;;;;;;10.98;9.88;;;;;;;10.00;79.23;97686.23;1761924;79;20872;-54
2021/11/27 09:32:56;;;;;;;13.55;9.83;;;;;;;9.99;79.06;97688.55;1762119;80;20957;-54
2021/11/27 09:35:22;;;;;;;10.03;7.45;;;;;;;10.01;78.87;97696.01;1759917;80;21240;-54
2021/11/27 09:37:49;;;;;;;8.78;7.97;;;;;;;10.04;78.70;97701.12;1757437;80;21071;-54
2021/11/27 09:40:16;;;;;;;9.60;7.60;;;;;;;10.07;78.67;97696.86;1755252;80;21554;-53
2021/11/27 09:42:42;;;;;;;7.22;6.53;;;;;;;10.13;78.50;97699.05;1755308;80;21525;-54
2021/11/27 09:45:10;;;;;;;12.10;8.30;;;;;;;10.19;78.30;97697.28;1757699;80;21068;-54
2021/11/27 09:47:37;;;;;;;9.90;8.38;;;;;;;10.27;78.22;97684.09;1791941;78;21393;-54
2021/11/27 09:50:06;;;;;;;9.48;8.58;;;;;;;10.34;77.99;97681.27;1789808;78;21431;-54
2021/11/27 09:52:33;;;;;;;9.73;7.95;;;;;;;10.43;77.70;97679.19;1761792;80;22116;-54
2021/11/27 09:54:59;;;;;;;9.08;8.30;;;;;;;10.51;77.40;97675.87;1759701;79;21044;-54
2021/11/27 09:57:26;;;;;;;7.95;7.30;;;;;;;10.55;76.93;97669.25;1757790;80;21435;-54
2021/11/27 09:59:52;;;;;;;8.88;8.18;;;;;;;10.55;76.45;97672.80;1760296;80;21124;-54
2021/11/27 10:02:22;;;;;;;8.83;7.75;;;;;;;10.55;75.93;97672.80;1758835;80;21580;-54
2021/11/27 10:04:52;;;;;;;7.35;6.65;;;;;;;10.56;75.62;97669.63;1760796;80;21532;-55
2021/11/27 10:07:19;;;;;;;6.28;5.78;;;;;;;10.57;75.41;97664.13;1763573;80;20875;-55
2021/11/27 10:09:47;;;;;;;9.30;7.30;;;;;;;10.60;75.32;97668.41;1762384;80;20930;-55
2021/11/27 10:12:14;;;;;;;10.18;8.23;;;;;;;10.63;75.03;97665.97;1762906;80;21452;-55
2021/11/27 10:14:41;;;;;;;8.25;7.50;;;;;;;10.64;74.84;97664.48;1763688;80;21388;-55
2021/11/27 10:17:20;;;;;;;8.65;7.75;;;;;;;10.67;74.49;97664.73;1758599;80;20954;-55
2021/11/27 10:19:57;;;;;;;7.33;6.53;;;;;;;10.67;74.06;97658.00;1760561;80;20998;-56
2021/11/27 10:22:41;;;;;;;10.65;8.78;;;;;;;10.69;74.04;97656.91;1762536;80;21021;-55
2021/11/27 10:25:30;;;;;;;7.35;6.65;;;;;;;10.72;73.97;97657.98;1756961;80;21312;-55
2021/11/27 10:28:05;;;;;;;5.70;5.30;;;;;;;10.77;73.83;97659.81;1758350;80;21009;-55
2021/11/27 10:30:55;;;;;;;;;;;;;;;10.83;73.49;97660.66;1763352;80;21133;-55
2021/11/27 10:33:21;;;;;;;6.08;4.75;;;;;;;10.88;73.45;97658.45;1751953;80;20213;-55
2021/11/27 10:35:59;;;;;;;5.15;4.67;;;;;;;10.89;73.00;97660.14;1757013;80;21124;-55
2021/11/27 10:38:44;;;;;;;5.92;5.17;;;;;;;10.89;72.84;97661.48;1755280;80;21053;-55
2021/11/27 10:41:16;;;;;;;5.25;4.85;;;;;;;10.89;72.51;97666.02;1757975;80;21145;-55
2021/11/27 10:44:02;;;;;;;4.92;4.45;;;;;;;10.86;72.39;97660.41;1763113;80;21246;-55
2021/11/27 10:46:32;;;;;;;3.67;3.35;;;;;;;10.84;72.08;97665.06;1758724;80;20926;-55
2021/11/27 10:48:58;;;;;;;4.62;4.22;;;;;;;10.82;71.88;97674.23;1758621;80;20993;-55
2021/11/27 10:51:25;;;;;;;4.37;4.05;;;;;;;10.80;71.87;97669.48;1761630;80;21034;-55
2021/11/27 10:53:59;;;;;;;4.30;3.67;;;;;;;10.77;71.89;97672.42;1755950;80;21742;-55
2021/11/27 10:56:45;;;;;;;5.08;3.98;;;;;;;10.75;71.74;97674.38;1761209;80;21056;-55
2021/11/27 10:59:12;;;;;;;5.08;4.67;;;;;;;10.75;71.64;97682.45;1775002;79;21495;-55
2021/11/27 11:02:04;;;;;;;5.10;4.67;;;;;;;10.72;71.71;97682.20;1774203;79;20953;-55
2021/11/27 11:04:32;;;;;;;3.60;3.33;;;;;;;10.73;71.67;97680.36;1767237;79;21558;-55
2021/11/27 11:07:22;;;;;;;3.50;3.30;;;;;;;10.72;71.55;97681.37;1766173;79;21352;-55
2021/11/27 11:10:12;;;;;;;4.42;4.12;;;;;;;10.72;71.59;97682.20;1772068;79;21860;-55
2021/11/27 11:12:48;;;;;;;7.12;4.80;;;;;;;10.73;71.60;97691.98;1773698;79;20863;-55
2021/11/27 11:15:22;;;;;;;4.40;4.08;;;;;;;10.71;71.77;97695.31;1774415;79;20966;-55
2021/11/27 11:17:52;;;;;;;5.40;4.90;;;;;;;10.70;71.67;97705.70;1773494;79;20954;-55
2021/11/27 11:20:25;;;;;;;3.25;2.95;;;;;;;10.69;71.56;97708.52;1769920;79;20903;-55
2021/11/27 11:23:08;;;;;;;3.70;3.08;;;;;;;10.67;71.47;97718.53;1768128;79;22374;-55
2021/11/27 11:25:40;;;;;;;4.05;3.67;;;;;;;10.69;71.55;97717.93;1770912;79;20883;-55
2021/11/27 11:28:14;;;;;;;3.75;3.55;;;;;;;10.73;71.70;97723.41;1765707;79;20933;-55
2021/11/27 11:30:44;;;;;;;4.70;4.37;;;;;;;10.77;71.60;97732.48;1770525;79;20895;-55
2021/11/27 11:33:12;;;;;;;5.95;4.20;;;;;;;10.82;71.51;97730.74;1771514;79;21069;-55
2021/11/27 11:35:39;;;;;;;5.10;4.08;;;;;;;10.84;71.43;97727.45;1770451;79;21554;-55
2021/11/27 11:38:11;;;;;;;6.72;4.45;;;;;;;10.88;71.30;97732.96;1769585;79;20907;-54
2021/11/27 11:40:39;;;;;;;3.40;3.08;;;;;;;10.90;71.12;97727.80;1770966;79;20950;-55
2021/11/27 11:43:06;;;;;;;3.98;3.62;;;;;;;10.93;71.06;97722.17;1774169;79;20981;-55
2021/11/27 11:45:33;;;;;;;3.00;2.80;;;;;;;10.96;70.79;97728.66;1774930;79;20977;-55
2021/11/27 11:48:01;;;;;;;3.15;2.85;;;;;;;11.01;70.60;97740.39;1772732;79;21353;-55
2021/11/27 11:50:30;;;;;;;3.30;3.10;;;;;;;11.06;70.39;97734.12;1770038;79;21776;-55